»·PEaware :: USC243 KRIF-KDEN

USC243 :: KRIF-KDEN

FLIGHT INFORMATION

Flight Status: Arrived
Operator: Unknown
More flights by this operator :: More flights under this callsign
Pilot: Andy P. (22680)
Aircraft: GATES LEARJET LEARJET 35/36
(LJ35)
More flights by this aircraft type
Origin: KRIF Richfield Mun
United States
Destination: KDEN Denver Intl
United States
More flights between these airports :: More routes between these airports
Route: HAMET HAQHY CREDE3
File this flight plan on PilotEdge
Remarks:
Altitude:
(Current/Filed)
35,000ft
Speed:
(Current/Filed)
465kts
Departed: 22-Sep-19 05:22 PM
Arrived: 22-Sep-19 06:25 PM
Distance/Time
Traveled:
351nm/1:03
Distance/Time
To Go:
Arrived

Flight Plot

Page will automatically refresh every two minutes.

Flight plan parsing failed; only flown route is shown


Map Options




Map Legend


Flown Route
Filed Route
Departure Airport
Arrival Airport
Navaid (VOR, NDB)
Fix

Horizontal Profiles

Position Reports

Time Latitude Longitude Heading Altitude Ground
Speed
22-Sep-19 17:05 38.743589 -112.098159 269 5304ft 0kts
22-Sep-19 17:06 38.743589 -112.098159 269 5304ft 0kts
22-Sep-19 17:07 38.743589 -112.098159 269 5304ft 0kts
22-Sep-19 17:08 38.743589 -112.098159 269 5304ft 0kts
22-Sep-19 17:09 38.743589 -112.098159 269 5304ft 0kts
22-Sep-19 17:10 38.743589 -112.098159 269 5304ft 0kts
22-Sep-19 17:11 38.743589 -112.098159 269 5304ft 0kts
22-Sep-19 17:12 38.743589 -112.098159 269 5304ft 0kts
22-Sep-19 17:13 38.743589 -112.098159 269 5304ft 0kts
22-Sep-19 17:14 38.743589 -112.098159 269 5304ft 0kts
22-Sep-19 17:15 38.743589 -112.098159 269 5304ft 0kts
22-Sep-19 17:16 38.743589 -112.098159 269 5304ft 0kts
22-Sep-19 17:17 38.743589 -112.098163 269 5304ft 0kts
22-Sep-19 17:18 38.743751 -112.096249 90 5304ft 9kts
22-Sep-19 17:19 38.743745 -112.095262 91 5304ft 0kts
22-Sep-19 17:20 38.744441 -112.094214 198 5304ft 0kts
22-Sep-19 17:21 38.715204 -112.111685 208 6345ft 199kts
22-Sep-19 17:22 38.657965 -112.149821 203 10596ft 250kts
22-Sep-19 17:23 38.586792 -112.188346 203 13851ft 301kts
22-Sep-19 17:24 38.503162 -112.209213 185 17039ft 320kts
22-Sep-19 17:25 38.408554 -112.216272 186 19187ft 360kts
22-Sep-19 17:26 38.304858 -112.211617 157 21033ft 389kts
22-Sep-19 17:27 38.253558 -112.088647 99 22155ft 433kts
22-Sep-19 17:28 38.269883 -111.934184 77 23099ft 451kts
22-Sep-19 17:29 38.351567 -111.813955 34 23754ft 457kts
22-Sep-19 17:30 38.438541 -111.699725 67 25645ft 465kts
22-Sep-19 17:31 38.467012 -111.536728 83 27586ft 479kts
22-Sep-19 17:32 38.486983 -111.366392 83 29561ft 493kts
22-Sep-19 17:33 38.506999 -111.192949 84 31604ft 496kts
22-Sep-19 17:34 38.526946 -111.017691 84 33343ft 500kts
22-Sep-19 17:35 38.546754 -110.841298 84 34940ft 504kts
22-Sep-19 17:36 38.566735 -110.660574 84 35159ft 522kts
22-Sep-19 17:37 38.587063 -110.474217 84 35163ft 532kts
22-Sep-19 17:38 38.607195 -110.286769 84 35163ft 534kts
22-Sep-19 17:39 38.627155 -110.097975 84 35166ft 535kts
22-Sep-19 17:40 38.646714 -109.909978 84 35166ft 533kts
22-Sep-19 17:41 38.665950 -109.722086 84 35166ft 532kts
22-Sep-19 17:42 38.684818 -109.534755 84 35166ft 531kts
22-Sep-19 17:43 38.703389 -109.347290 84 35183ft 530kts
22-Sep-19 17:44 38.721609 -109.160251 84 35199ft 530kts
22-Sep-19 17:45 38.739550 -108.972897 84 35208ft 529kts
22-Sep-19 17:46 38.757187 -108.785494 84 35210ft 529kts
22-Sep-19 17:47 38.774504 -108.598242 84 35206ft 530kts
22-Sep-19 17:48 38.791514 -108.410910 84 35218ft 530kts
22-Sep-19 17:49 38.808275 -108.223006 85 35218ft 531kts
22-Sep-19 17:50 38.826236 -108.034867 79 35218ft 532kts
22-Sep-19 17:51 38.856852 -107.849292 78 35219ft 532kts
22-Sep-19 17:52 38.885801 -107.662451 79 35258ft 531kts
22-Sep-19 17:53 38.914008 -107.476603 79 35341ft 530kts
22-Sep-19 17:54 38.941889 -107.290587 79 35374ft 529kts
22-Sep-19 17:55 38.969357 -107.105199 79 35372ft 530kts
22-Sep-19 17:56 38.996638 -106.918933 79 35358ft 530kts
22-Sep-19 17:57 39.022918 -106.737408 79 35363ft 530kts
22-Sep-19 17:58 39.049572 -106.551129 79 35387ft 530kts
22-Sep-19 17:59 39.074471 -106.375066 79 33958ft 465kts
22-Sep-19 18:00 39.096119 -106.220351 79 32756ft 443kts
22-Sep-19 18:01 39.140649 -106.061735 57 30759ft 504kts
22-Sep-19 18:03 39.211189 -105.901514 58 28557ft 506kts
22-Sep-19 18:04 39.278716 -105.747648 58 26469ft 488kts
22-Sep-19 18:05 39.345192 -105.595786 57 24367ft 446kts
22-Sep-19 18:06 39.398921 -105.472865 56 22744ft 366kts
22-Sep-19 18:07 39.456589 -105.364340 51 21220ft 370kts
22-Sep-19 18:08 39.514544 -105.254741 51 19664ft 367kts
22-Sep-19 18:09 39.569792 -105.149352 51 18151ft 361kts
22-Sep-19 18:10 39.623467 -105.046508 51 16693ft 332kts
22-Sep-19 18:11 39.672757 -104.951768 52 15359ft 324kts
22-Sep-19 18:12 39.727967 -104.859019 29 13971ft 321kts
22-Sep-19 18:13 39.802548 -104.841394 355 12797ft 249kts
22-Sep-19 18:14 39.870331 -104.839581 355 11735ft 247kts
22-Sep-19 18:15 39.941964 -104.839132 357 10340ft 268kts
22-Sep-19 18:16 40.015448 -104.840029 359 8635ft 258kts
22-Sep-19 18:17 40.077800 -104.827792 52 8072ft 201kts
22-Sep-19 18:18 40.084021 -104.761560 89 8080ft 190kts
22-Sep-19 18:19 40.085493 -104.689805 88 8078ft 202kts
22-Sep-19 18:20 40.056004 -104.639430 167 8057ft 184kts
22-Sep-19 18:21 40.006355 -104.639855 180 8069ft 174kts
22-Sep-19 18:21 39.963833 -104.640645 178 7334ft 186kts
22-Sep-19 18:23 39.914897 -104.641037 177 6382ft 127kts
22-Sep-19 18:24 39.877571 -104.641158 178 5721ft 138kts
22-Sep-19 18:24 39.854495 -104.641368 179 5434ft 34kts
22-Sep-19 18:25 39.852867 -104.642835 292 5434ft 1kts
22-Sep-19 18:27 39.851475 -104.643546 180 5434ft 14kts
22-Sep-19 18:27 39.846546 -104.643638 179 5434ft 32kts
22-Sep-19 18:28 39.835614 -104.643777 181 5434ft 36kts
22-Sep-19 18:29 39.832112 -104.650039 270 5434ft 43kts
22-Sep-19 18:30 39.832099 -104.663509 231 5434ft 13kts
22-Sep-19 18:31 39.828409 -104.667662 270 5434ft 33kts
22-Sep-19 18:32 39.829022 -104.677467 333 5434ft 20kts
22-Sep-19 18:33 39.831175 -104.680745 357 5434ft 0kts
22-Sep-19 18:34 39.831175 -104.680745 357 5434ft 0kts
22-Sep-19 18:35 39.831175 -104.680745 357 5434ft 0kts

Navigation Log

Ident Type
Flight plan parsing failed, navigation log unavailable